sensor_id;sensor_type;location;lat;lon;timestamp;pressure;altitude;pressure_sealevel;temperature;humidity
77106;BME280;66057;54.718;18.426;2023-04-24T00:00:22;100457.47;;;9.99;89.82
77106;BME280;66057;54.718;18.426;2023-04-24T00:03:07;100461.75;;;9.99;89.83
77106;BME280;66057;54.718;18.426;2023-04-24T00:05:33;100457.66;;;10.04;89.89
77106;BME280;66057;54.718;18.426;2023-04-24T00:08:00;100457.66;;;10.04;89.88
77106;BME280;66057;54.718;18.426;2023-04-24T00:10:27;100461.16;;;10.06;90.30
77106;BME280;66057;54.718;18.426;2023-04-24T00:12:53;100458.53;;;10.04;89.77
77106;BME280;66057;54.718;18.426;2023-04-24T00:15:19;100447.31;;;10.02;90.22
77106;BME280;66057;54.718;18.426;2023-04-24T00:17:44;100439.50;;;9.99;89.64
77106;BME280;66057;54.718;18.426;2023-04-24T00:20:10;100455.09;;;10.04;89.59
77106;BME280;66057;54.718;18.426;2023-04-24T00:22:37;100459.34;;;10.03;89.76
77106;BME280;66057;54.718;18.426;2023-04-24T00:25:03;100448.25;;;10.04;90.07
77106;BME280;66057;54.718;18.426;2023-04-24T00:27:29;100451.00;;;10.09;89.94
77106;BME280;66057;54.718;18.426;2023-04-24T00:29:54;100453.56;;;10.09;90.50
77106;BME280;66057;54.718;18.426;2023-04-24T00:32:20;100449.25;;;10.08;89.85
77106;BME280;66057;54.718;18.426;2023-04-24T00:34:46;100445.75;;;10.06;90.40
77106;BME280;66057;54.718;18.426;2023-04-24T00:37:11;100447.38;;;10.04;90.60
77106;BME280;66057;54.718;18.426;2023-04-24T00:39:39;100449.78;;;9.99;90.00
77106;BME280;66057;54.718;18.426;2023-04-24T00:42:04;100449.03;;;10.02;90.65
77106;BME280;66057;54.718;18.426;2023-04-24T00:44:33;100447.13;;;9.98;91.09
77106;BME280;66057;54.718;18.426;2023-04-24T00:46:58;100437.41;;;9.89;90.13
77106;BME280;66057;54.718;18.426;2023-04-24T00:49:24;100443.06;;;9.81;90.72
77106;BME280;66057;54.718;18.426;2023-04-24T00:51:50;100439.34;;;9.73;90.77
77106;BME280;66057;54.718;18.426;2023-04-24T00:54:18;100440.72;;;9.64;90.17
77106;BME280;66057;54.718;18.426;2023-04-24T00:56:44;100434.41;;;9.56;90.12
77106;BME280;66057;54.718;18.426;2023-04-24T00:59:12;100432.53;;;9.52;90.06
77106;BME280;66057;54.718;18.426;2023-04-24T01:01:39;100428.22;;;9.51;90.25
77106;BME280;66057;54.718;18.426;2023-04-24T01:04:08;100444.56;;;9.53;90.44
77106;BME280;66057;54.718;18.426;2023-04-24T01:06:38;100441.31;;;9.57;90.11
77106;BME280;66057;54.718;18.426;2023-04-24T01:09:05;100440.66;;;9.63;90.40
77106;BME280;66057;54.718;18.426;2023-04-24T01:11:33;100442.47;;;9.66;89.95
77106;BME280;66057;54.718;18.426;2023-04-24T01:13:59;100443.34;;;9.66;90.36
77106;BME280;66057;54.718;18.426;2023-04-24T01:16:25;100442.78;;;9.73;91.12
77106;BME280;66057;54.718;18.426;2023-04-24T01:18:51;100446.97;;;9.71;90.49
77106;BME280;66057;54.718;18.426;2023-04-24T01:21:17;100435.00;;;9.72;90.04
77106;BME280;66057;54.718;18.426;2023-04-24T01:23:44;100434.25;;;9.74;89.99
77106;BME280;66057;54.718;18.426;2023-04-24T01:26:12;100431.81;;;9.77;90.32
77106;BME280;66057;54.718;18.426;2023-04-24T01:28:39;100435.38;;;9.81;89.76
77106;BME280;66057;54.718;18.426;2023-04-24T01:31:05;100425.91;;;9.80;89.70
77106;BME280;66057;54.718;18.426;2023-04-24T01:33:31;100428.72;;;9.86;90.61
77106;BME280;66057;54.718;18.426;2023-04-24T01:35:58;100432.34;;;9.91;90.19
77106;BME280;66057;54.718;18.426;2023-04-24T01:38:25;100431.38;;;9.89;90.65
77106;BME280;66057;54.718;18.426;2023-04-24T01:40:51;100427.91;;;9.87;90.25
77106;BME280;66057;54.718;18.426;2023-04-24T01:43:17;100425.56;;;9.93;90.00
77106;BME280;66057;54.718;18.426;2023-04-24T01:45:43;100425.38;;;9.88;90.31
77106;BME280;66057;54.718;18.426;2023-04-24T01:48:09;100428.66;;;9.84;90.61
77106;BME280;66057;54.718;18.426;2023-04-24T01:50:36;100419.25;;;9.85;89.94
77106;BME280;66057;54.718;18.426;2023-04-24T01:53:02;100421.84;;;10.07;91.08
77106;BME280;66057;54.718;18.426;2023-04-24T01:55:28;100416.31;;;9.98;90.07
77106;BME280;66057;54.718;18.426;2023-04-24T01:57:55;100422.50;;;10.03;90.34
77106;BME280;66057;54.718;18.426;2023-04-24T02:00:21;100420.41;;;9.93;89.83
77106;BME280;66057;54.718;18.426;2023-04-24T02:02:47;100416.00;;;9.89;89.58
77106;BME280;66057;54.718;18.426;2023-04-24T02:05:13;100417.63;;;9.87;89.86
77106;BME280;66057;54.718;18.426;2023-04-24T02:07:38;100412.59;;;9.90;89.90
77106;BME280;66057;54.718;18.426;2023-04-24T02:10:05;100414.38;;;9.91;90.09
77106;BME280;66057;54.718;18.426;2023-04-24T02:12:31;100410.84;;;9.89;90.43
77106;BME280;66057;54.718;18.426;2023-04-24T02:14:57;100415.19;;;9.90;90.24
77106;BME280;66057;54.718;18.426;2023-04-24T02:17:23;100405.25;;;9.99;90.71
77106;BME280;66057;54.718;18.426;2023-04-24T02:19:49;100399.47;;;10.04;90.17
77106;BME280;66057;54.718;18.426;2023-04-24T02:22:15;100401.69;;;9.95;89.34
77106;BME280;66057;54.718;18.426;2023-04-24T02:24:41;100384.84;;;10.02;90.42
77106;BME280;66057;54.718;18.426;2023-04-24T02:27:07;100391.59;;;10.00;89.80
77106;BME280;66057;54.718;18.426;2023-04-24T02:29:32;100384.66;;;9.97;90.70
77106;BME280;66057;54.718;18.426;2023-04-24T02:31:58;100379.22;;;9.90;90.59
77106;BME280;66057;54.718;18.426;2023-04-24T02:34:24;100381.63;;;9.85;90.29
77106;BME280;66057;54.718;18.426;2023-04-24T02:36:51;100383.31;;;9.85;90.24
77106;BME280;66057;54.718;18.426;2023-04-24T02:39:19;100378.97;;;9.82;90.13
77106;BME280;66057;54.718;18.426;2023-04-24T02:41:45;100371.84;;;9.75;89.79
77106;BME280;66057;54.718;18.426;2023-04-24T02:44:11;100369.50;;;9.81;90.44
77106;BME280;66057;54.718;18.426;2023-04-24T02:46:37;100367.00;;;9.83;91.02
77106;BME280;66057;54.718;18.426;2023-04-24T02:49:02;100360.84;;;9.79;90.87
77106;BME280;66057;54.718;18.426;2023-04-24T02:51:29;100360.94;;;9.81;90.34
77106;BME280;66057;54.718;18.426;2023-04-24T02:53:55;100359.16;;;9.80;90.07
77106;BME280;66057;54.718;18.426;2023-04-24T02:56:21;100355.88;;;9.84;90.17
77106;BME280;66057;54.718;18.426;2023-04-24T02:58:47;100356.06;;;9.88;90.52
77106;BME280;66057;54.718;18.426;2023-04-24T03:01:13;100353.56;;;9.90;90.32
77106;BME280;66057;54.718;18.426;2023-04-24T03:03:39;100348.19;;;9.84;90.44
77106;BME280;66057;54.718;18.426;2023-04-24T03:06:06;100350.75;;;9.84;90.88
77106;BME280;66057;54.718;18.426;2023-04-24T03:08:33;100348.16;;;9.82;90.29
77106;BME280;66057;54.718;18.426;2023-04-24T03:11:00;100350.72;;;9.82;90.07
77106;BME280;66057;54.718;18.426;2023-04-24T03:13:26;100351.47;;;9.80;90.47
77106;BME280;66057;54.718;18.426;2023-04-24T03:15:53;100353.69;;;9.71;89.74
77106;BME280;66057;54.718;18.426;2023-04-24T03:18:19;100355.44;;;9.72;90.46
77106;BME280;66057;54.718;18.426;2023-04-24T03:20:45;100349.50;;;9.73;90.30
77106;BME280;66057;54.718;18.426;2023-04-24T03:23:11;100350.31;;;9.72;90.16
77106;BME280;66057;54.718;18.426;2023-04-24T03:25:41;100348.81;;;9.77;90.18
77106;BME280;66057;54.718;18.426;2023-04-24T03:28:08;100346.81;;;9.70;90.10
77106;BME280;66057;54.718;18.426;2023-04-24T03:30:34;100350.09;;;9.66;89.76
77106;BME280;66057;54.718;18.426;2023-04-24T03:33:00;100352.53;;;9.62;90.33
77106;BME280;66057;54.718;18.426;2023-04-24T03:35:26;100357.53;;;9.59;90.40
77106;BME280;66057;54.718;18.426;2023-04-24T03:37:52;100359.28;;;9.60;90.30
77106;BME280;66057;54.718;18.426;2023-04-24T03:40:18;100360.25;;;9.62;90.49
77106;BME280;66057;54.718;18.426;2023-04-24T03:42:44;100371.03;;;9.54;90.65
77106;BME280;66057;54.718;18.426;2023-04-24T03:45:11;100373.63;;;9.55;90.88
77106;BME280;66057;54.718;18.426;2023-04-24T03:47:37;100363.28;;;9.52;90.80
77106;BME280;66057;54.718;18.426;2023-04-24T03:50:04;100363.69;;;9.63;90.31
77106;BME280;66057;54.718;18.426;2023-04-24T03:52:29;100365.13;;;9.56;90.66
77106;BME280;66057;54.718;18.426;2023-04-24T03:54:55;100364.16;;;9.53;90.80
77106;BME280;66057;54.718;18.426;2023-04-24T03:57:21;100362.16;;;9.46;90.64
77106;BME280;66057;54.718;18.426;2023-04-24T03:59:47;100362.13;;;9.44;90.20
77106;BME280;66057;54.718;18.426;2023-04-24T04:02:13;100364.53;;;9.41;90.44
77106;BME280;66057;54.718;18.426;2023-04-24T04:04:39;100367.69;;;9.34;90.55
77106;BME280;66057;54.718;18.426;2023-04-24T04:07:05;100365.69;;;9.27;90.55
77106;BME280;66057;54.718;18.426;2023-04-24T04:09:32;100375.25;;;9.31;90.28
77106;BME280;66057;54.718;18.426;2023-04-24T04:11:58;100360.56;;;9.27;90.53
77106;BME280;66057;54.718;18.426;2023-04-24T04:14:24;100367.81;;;9.16;90.28
77106;BME280;66057;54.718;18.426;2023-04-24T04:16:50;100372.59;;;9.07;90.00
77106;BME280;66057;54.718;18.426;2023-04-24T04:19:16;100366.97;;;8.95;90.13
77106;BME280;66057;54.718;18.426;2023-04-24T04:21:42;100378.34;;;9.02;90.31
77106;BME280;66057;54.718;18.426;2023-04-24T04:24:07;100371.84;;;9.10;90.28
77106;BME280;66057;54.718;18.426;2023-04-24T04:26:33;100383.69;;;9.06;90.39
77106;BME280;66057;54.718;18.426;2023-04-24T04:28:59;100379.28;;;9.04;90.07
77106;BME280;66057;54.718;18.426;2023-04-24T04:31:25;100385.53;;;9.10;90.77
77106;BME280;66057;54.718;18.426;2023-04-24T04:33:51;100369.41;;;9.13;90.63
77106;BME280;66057;54.718;18.426;2023-04-24T04:36:17;100371.66;;;9.05;90.10
77106;BME280;66057;54.718;18.426;2023-04-24T04:38:43;100366.72;;;9.10;89.58
77106;BME280;66057;54.718;18.426;2023-04-24T04:41:10;100387.06;;;9.05;89.59
77106;BME280;66057;54.718;18.426;2023-04-24T04:43:36;100384.31;;;9.01;89.19
77106;BME280;66057;54.718;18.426;2023-04-24T04:46:03;100374.59;;;8.94;88.80
77106;BME280;66057;54.718;18.426;2023-04-24T04:48:29;100371.59;;;9.04;89.44
77106;BME280;66057;54.718;18.426;2023-04-24T04:50:57;100374.22;;;9.05;88.54
77106;BME280;66057;54.718;18.426;2023-04-24T04:53:23;100373.16;;;9.00;88.95
77106;BME280;66057;54.718;18.426;2023-04-24T04:55:48;100365.66;;;9.05;88.74
77106;BME280;66057;54.718;18.426;2023-04-24T04:58:15;100365.34;;;9.18;88.97
77106;BME280;66057;54.718;18.426;2023-04-24T05:00:40;100359.84;;;9.31;89.69
77106;BME280;66057;54.718;18.426;2023-04-24T05:03:07;100357.09;;;9.25;89.76
77106;BME280;66057;54.718;18.426;2023-04-24T05:05:32;100360.31;;;9.21;89.25
77106;BME280;66057;54.718;18.426;2023-04-24T05:08:00;100363.72;;;9.20;89.09
77106;BME280;66057;54.718;18.426;2023-04-24T05:10:25;100369.66;;;9.19;89.21
77106;BME280;66057;54.718;18.426;2023-04-24T05:12:51;100362.59;;;9.13;88.64
77106;BME280;66057;54.718;18.426;2023-04-24T05:15:17;100361.09;;;9.18;89.36
77106;BME280;66057;54.718;18.426;2023-04-24T05:17:43;100362.75;;;9.18;89.02
77106;BME280;66057;54.718;18.426;2023-04-24T05:20:08;100363.19;;;9.29;89.38
77106;BME280;66057;54.718;18.426;2023-04-24T05:22:35;100353.19;;;9.35;89.23
77106;BME280;66057;54.718;18.426;2023-04-24T05:25:01;100356.28;;;9.48;89.88
77106;BME280;66057;54.718;18.426;2023-04-24T05:27:27;100352.47;;;9.61;90.18
77106;BME280;66057;54.718;18.426;2023-04-24T05:29:53;100350.38;;;9.73;90.93
77106;BME280;66057;54.718;18.426;2023-04-24T05:32:19;100349.25;;;9.89;91.38
77106;BME280;66057;54.718;18.426;2023-04-24T05:34:45;100347.38;;;9.85;90.76
77106;BME280;66057;54.718;18.426;2023-04-24T05:37:12;100354.50;;;9.70;90.04
77106;BME280;66057;54.718;18.426;2023-04-24T05:39:37;100357.69;;;9.62;89.90
77106;BME280;66057;54.718;18.426;2023-04-24T05:42:05;100340.78;;;9.69;89.85
77106;BME280;66057;54.718;18.426;2023-04-24T05:44:30;100333.16;;;9.71;90.47
77106;BME280;66057;54.718;18.426;2023-04-24T05:46:56;100335.50;;;9.87;90.50
77106;BME280;66057;54.718;18.426;2023-04-24T05:49:22;100330.13;;;9.81;90.00
77106;BME280;66057;54.718;18.426;2023-04-24T05:51:48;100335.19;;;9.79;89.59
77106;BME280;66057;54.718;18.426;2023-04-24T05:54:13;100342.44;;;9.45;89.34
77106;BME280;66057;54.718;18.426;2023-04-24T05:56:39;100338.34;;;9.50;89.08
77106;BME280;66057;54.718;18.426;2023-04-24T05:59:05;100348.28;;;9.41;89.05
77106;BME280;66057;54.718;18.426;2023-04-24T06:01:31;100353.28;;;9.38;89.25
77106;BME280;66057;54.718;18.426;2023-04-24T06:03:56;100356.03;;;9.42;88.84
77106;BME280;66057;54.718;18.426;2023-04-24T06:06:23;100346.22;;;9.54;89.73
77106;BME280;66057;54.718;18.426;2023-04-24T06:08:49;100345.09;;;9.69;89.78
77106;BME280;66057;54.718;18.426;2023-04-24T06:11:15;100347.03;;;9.76;90.24
77106;BME280;66057;54.718;18.426;2023-04-24T06:13:42;100346.91;;;9.49;90.48
77106;BME280;66057;54.718;18.426;2023-04-24T06:16:08;100337.63;;;9.52;89.33
77106;BME280;66057;54.718;18.426;2023-04-24T06:18:34;100332.66;;;9.35;89.23
77106;BME280;66057;54.718;18.426;2023-04-24T06:21:00;100340.84;;;9.26;89.00
77106;BME280;66057;54.718;18.426;2023-04-24T06:23:25;100337.78;;;9.35;89.50
77106;BME280;66057;54.718;18.426;2023-04-24T06:25:51;100338.78;;;9.38;89.87
77106;BME280;66057;54.718;18.426;2023-04-24T06:28:18;100336.91;;;9.34;89.53
77106;BME280;66057;54.718;18.426;2023-04-24T06:30:44;100339.88;;;9.45;89.91
77106;BME280;66057;54.718;18.426;2023-04-24T06:33:11;100342.63;;;9.49;89.92
77106;BME280;66057;54.718;18.426;2023-04-24T06:35:37;100345.31;;;9.52;90.13
77106;BME280;66057;54.718;18.426;2023-04-24T06:38:03;100336.97;;;9.58;90.18
77106;BME280;66057;54.718;18.426;2023-04-24T06:40:29;100336.84;;;9.55;92.48
77106;BME280;66057;54.718;18.426;2023-04-24T06:42:55;100326.44;;;9.74;91.36
77106;BME280;66057;54.718;18.426;2023-04-24T06:45:26;100330.13;;;9.81;91.67
77106;BME280;66057;54.718;18.426;2023-04-24T06:47:52;100323.78;;;9.95;91.21
77106;BME280;66057;54.718;18.426;2023-04-24T06:50:17;100326.19;;;10.14;90.97
77106;BME280;66057;54.718;18.426;2023-04-24T06:52:43;100327.34;;;9.98;91.08
77106;BME280;66057;54.718;18.426;2023-04-24T06:55:09;100327.63;;;10.06;90.77
77106;BME280;66057;54.718;18.426;2023-04-24T06:57:36;100334.78;;;9.91;90.18
77106;BME280;66057;54.718;18.426;2023-04-24T07:00:03;100335.34;;;9.84;90.15
77106;BME280;66057;54.718;18.426;2023-04-24T07:02:30;100330.59;;;9.71;89.88
77106;BME280;66057;54.718;18.426;2023-04-24T07:04:56;100325.69;;;9.54;89.52
77106;BME280;66057;54.718;18.426;2023-04-24T07:07:22;100327.16;;;9.70;90.08
77106;BME280;66057;54.718;18.426;2023-04-24T07:09:55;100325.00;;;9.81;90.69
77106;BME280;66057;54.718;18.426;2023-04-24T07:12:21;100319.19;;;9.62;90.56
77106;BME280;66057;54.718;18.426;2023-04-24T07:14:48;100325.50;;;9.48;89.08
77106;BME280;66057;54.718;18.426;2023-04-24T07:17:13;100332.47;;;9.52;89.54
77106;BME280;66057;54.718;18.426;2023-04-24T07:19:41;100323.13;;;9.77;89.54
77106;BME280;66057;54.718;18.426;2023-04-24T07:22:06;100323.91;;;9.98;89.81
77106;BME280;66057;54.718;18.426;2023-04-24T07:24:32;100309.09;;;10.15;90.24
77106;BME280;66057;54.718;18.426;2023-04-24T07:26:58;100307.19;;;10.09;90.31
77106;BME280;66057;54.718;18.426;2023-04-24T07:29:24;100303.09;;;10.14;89.77
77106;BME280;66057;54.718;18.426;2023-04-24T07:31:50;100296.38;;;9.94;90.06
77106;BME280;66057;54.718;18.426;2023-04-24T07:34:15;100299.06;;;9.73;90.08
77106;BME280;66057;54.718;18.426;2023-04-24T07:36:42;100311.09;;;9.76;90.07
77106;BME280;66057;54.718;18.426;2023-04-24T07:39:07;100313.84;;;9.80;89.82
77106;BME280;66057;54.718;18.426;2023-04-24T07:41:33;100315.66;;;9.83;89.94
77106;BME280;66057;54.718;18.426;2023-04-24T07:43:59;100323.38;;;9.83;89.68
77106;BME280;66057;54.718;18.426;2023-04-24T07:46:25;100302.78;;;10.05;90.98
77106;BME280;66057;54.718;18.426;2023-04-24T07:48:55;100304.06;;;10.16;90.40
77106;BME280;66057;54.718;18.426;2023-04-24T07:51:20;100301.56;;;10.43;90.26
77106;BME280;66057;54.718;18.426;2023-04-24T07:53:46;100298.09;;;10.42;90.33
77106;BME280;66057;54.718;18.426;2023-04-24T07:56:14;100293.78;;;10.16;89.63
77106;BME280;66057;54.718;18.426;2023-04-24T07:58:39;100292.75;;;10.36;89.79
77106;BME280;66057;54.718;18.426;2023-04-24T08:01:07;100302.50;;;10.45;90.33
77106;BME280;66057;54.718;18.426;2023-04-24T08:03:34;100296.25;;;10.38;89.79
77106;BME280;66057;54.718;18.426;2023-04-24T08:06:00;100301.69;;;10.47;89.69
77106;BME280;66057;54.718;18.426;2023-04-24T08:08:26;100309.72;;;10.57;89.41
77106;BME280;66057;54.718;18.426;2023-04-24T08:10:52;100313.53;;;10.68;89.20
77106;BME280;66057;54.718;18.426;2023-04-24T08:13:17;100302.44;;;10.96;88.69
77106;BME280;66057;54.718;18.426;2023-04-24T08:15:43;100288.09;;;11.02;88.18
77106;BME280;66057;54.718;18.426;2023-04-24T08:18:08;100289.13;;;11.09;88.01
77106;BME280;66057;54.718;18.426;2023-04-24T08:20:37;100281.94;;;11.25;87.20
77106;BME280;66057;54.718;18.426;2023-04-24T08:23:02;100286.66;;;11.40;87.04
77106;BME280;66057;54.718;18.426;2023-04-24T08:25:28;100282.84;;;11.56;86.72
77106;BME280;66057;54.718;18.426;2023-04-24T08:27:53;100282.59;;;11.48;85.92
77106;BME280;66057;54.718;18.426;2023-04-24T08:30:20;100276.44;;;11.43;86.62
77106;BME280;66057;54.718;18.426;2023-04-24T08:32:46;100266.56;;;11.57;86.61
77106;BME280;66057;54.718;18.426;2023-04-24T08:35:11;100266.22;;;11.73;86.32
77106;BME280;66057;54.718;18.426;2023-04-24T08:37:38;100276.34;;;11.68;85.96
77106;BME280;66057;54.718;18.426;2023-04-24T08:40:11;100276.56;;;11.46;86.13
77106;BME280;66057;54.718;18.426;2023-04-24T08:42:39;100280.78;;;11.44;85.63
77106;BME280;66057;54.718;18.426;2023-04-24T08:45:05;100283.28;;;11.43;85.89
77106;BME280;66057;54.718;18.426;2023-04-24T08:47:32;100286.13;;;11.22;85.63
77106;BME280;66057;54.718;18.426;2023-04-24T08:49:59;100286.47;;;11.06;85.74
77106;BME280;66057;54.718;18.426;2023-04-24T08:52:25;100284.84;;;11.09;85.29
77106;BME280;66057;54.718;18.426;2023-04-24T08:54:56;100283.91;;;11.06;85.80
77106;BME280;66057;54.718;18.426;2023-04-24T08:57:22;100273.41;;;11.00;86.15
77106;BME280;66057;54.718;18.426;2023-04-24T08:59:48;100268.25;;;11.00;86.59
77106;BME280;66057;54.718;18.426;2023-04-24T09:02:14;100277.78;;;11.02;86.16
77106;BME280;66057;54.718;18.426;2023-04-24T09:04:42;100279.72;;;11.09;86.63
77106;BME280;66057;54.718;18.426;2023-04-24T09:07:10;100279.81;;;11.12;86.44
77106;BME280;66057;54.718;18.426;2023-04-24T09:09:38;100273.88;;;11.15;86.97
77106;BME280;66057;54.718;18.426;2023-04-24T09:12:03;100269.69;;;11.17;86.21
77106;BME280;66057;54.718;18.426;2023-04-24T09:14:30;100264.38;;;11.12;85.55
77106;BME280;66057;54.718;18.426;2023-04-24T09:16:57;100267.50;;;11.30;86.64
77106;BME280;66057;54.718;18.426;2023-04-24T09:19:23;100267.78;;;11.40;86.08
77106;BME280;66057;54.718;18.426;2023-04-24T09:21:49;100258.22;;;11.35;86.46
77106;BME280;66057;54.718;18.426;2023-04-24T09:24:19;100269.47;;;11.39;85.29
77106;BME280;66057;54.718;18.426;2023-04-24T09:26:46;100270.28;;;11.36;85.68
77106;BME280;66057;54.718;18.426;2023-04-24T09:29:16;100257.63;;;11.16;85.39
77106;BME280;66057;54.718;18.426;2023-04-24T09:31:43;100260.25;;;11.46;85.85
77106;BME280;66057;54.718;18.426;2023-04-24T09:34:09;100255.50;;;11.59;85.67
77106;BME280;66057;54.718;18.426;2023-04-24T09:36:37;100251.84;;;12.12;85.58
77106;BME280;66057;54.718;18.426;2023-04-24T09:39:10;100242.28;;;12.41;85.31
77106;BME280;66057;54.718;18.426;2023-04-24T09:41:54;100241.19;;;12.67;84.32
77106;BME280;66057;54.718;18.426;2023-04-24T09:44:22;100238.03;;;12.79;84.20
77106;BME280;66057;54.718;18.426;2023-04-24T09:46:58;100228.34;;;12.69;84.07
77106;BME280;66057;54.718;18.426;2023-04-24T09:49:29;100228.56;;;12.44;84.28
77106;BME280;66057;54.718;18.426;2023-04-24T09:52:11;100220.28;;;12.55;84.93
77106;BME280;66057;54.718;18.426;2023-04-24T09:54:37;100223.44;;;12.81;84.37
77106;BME280;66057;54.718;18.426;2023-04-24T09:57:04;100222.34;;;12.70;84.70
77106;BME280;66057;54.718;18.426;2023-04-24T09:59:30;100219.44;;;12.56;84.44
77106;BME280;66057;54.718;18.426;2023-04-24T10:01:56;100215.72;;;12.45;84.25
77106;BME280;66057;54.718;18.426;2023-04-24T10:04:28;100209.31;;;12.30;84.48
77106;BME280;66057;54.718;18.426;2023-04-24T10:06:56;100213.19;;;12.47;84.84
77106;BME280;66057;54.718;18.426;2023-04-24T10:09:25;100211.44;;;12.46;84.61
77106;BME280;66057;54.718;18.426;2023-04-24T10:11:54;100206.91;;;12.72;84.75
77106;BME280;66057;54.718;18.426;2023-04-24T10:14:24;100204.25;;;12.68;84.92
77106;BME280;66057;54.718;18.426;2023-04-24T10:16:54;100198.38;;;12.74;84.79
77106;BME280;66057;54.718;18.426;2023-04-24T10:19:25;100197.50;;;12.74;84.67
77106;BME280;66057;54.718;18.426;2023-04-24T10:21:52;100198.00;;;12.59;84.21
77106;BME280;66057;54.718;18.426;2023-04-24T10:24:18;100201.34;;;12.55;84.10
77106;BME280;66057;54.718;18.426;2023-04-24T10:26:46;100181.78;;;12.27;85.16
77106;BME280;66057;54.718;18.426;2023-04-24T10:29:17;100185.78;;;12.50;85.14
77106;BME280;66057;54.718;18.426;2023-04-24T10:31:43;100181.50;;;12.51;84.55
77106;BME280;66057;54.718;18.426;2023-04-24T10:34:10;100174.75;;;12.56;84.80
77106;BME280;66057;54.718;18.426;2023-04-24T10:36:41;100183.00;;;12.43;84.79
77106;BME280;66057;54.718;18.426;2023-04-24T10:39:12;100182.38;;;12.53;85.33
77106;BME280;66057;54.718;18.426;2023-04-24T10:41:40;100183.53;;;12.64;84.68
77106;BME280;66057;54.718;18.426;2023-04-24T10:46:32;100176.09;;;12.78;85.05
77106;BME280;66057;54.718;18.426;2023-04-24T10:48:57;100165.19;;;12.91;84.66
77106;BME280;66057;54.718;18.426;2023-04-24T10:51:24;100165.28;;;12.94;85.00
77106;BME280;66057;54.718;18.426;2023-04-24T10:54:24;100163.91;;;12.71;84.13
77106;BME280;66057;54.718;18.426;2023-04-24T10:56:50;100163.13;;;12.75;84.88
77106;BME280;66057;54.718;18.426;2023-04-24T10:59:23;100171.66;;;12.71;84.80
77106;BME280;66057;54.718;18.426;2023-04-24T11:01:55;100161.50;;;12.78;84.51
77106;BME280;66057;54.718;18.426;2023-04-24T11:04:32;100156.97;;;12.68;84.56
77106;BME280;66057;54.718;18.426;2023-04-24T11:07:06;100154.84;;;12.52;84.45
77106;BME280;66057;54.718;18.426;2023-04-24T11:09:34;100152.28;;;12.50;84.98
77106;BME280;66057;54.718;18.426;2023-04-24T11:12:09;100160.53;;;12.73;84.56
77106;BME280;66057;54.718;18.426;2023-04-24T11:15:01;100158.00;;;12.76;85.04
77106;BME280;66057;54.718;18.426;2023-04-24T11:17:37;100152.84;;;12.76;84.48
77106;BME280;66057;54.718;18.426;2023-04-24T11:20:10;100151.75;;;12.65;85.17
77106;BME280;66057;54.718;18.426;2023-04-24T11:22:40;100151.13;;;12.75;84.65
77106;BME280;66057;54.718;18.426;2023-04-24T11:25:06;100145.09;;;13.15;84.60
77106;BME280;66057;54.718;18.426;2023-04-24T11:27:44;100146.31;;;13.31;84.26
77106;BME280;66057;54.718;18.426;2023-04-24T11:30:11;100147.22;;;13.34;84.06
77106;BME280;66057;54.718;18.426;2023-04-24T11:32:42;100134.94;;;13.66;83.58
77106;BME280;66057;54.718;18.426;2023-04-24T11:35:22;100142.84;;;13.75;82.91
77106;BME280;66057;54.718;18.426;2023-04-24T11:37:52;100135.28;;;13.86;82.53
77106;BME280;66057;54.718;18.426;2023-04-24T11:40:20;100135.69;;;14.10;82.65
77106;BME280;66057;54.718;18.426;2023-04-24T11:42:50;100134.91;;;14.14;82.08
77106;BME280;66057;54.718;18.426;2023-04-24T11:45:17;100135.78;;;14.15;82.39
77106;BME280;66057;54.718;18.426;2023-04-24T11:47:44;100124.13;;;14.39;82.53
77106;BME280;66057;54.718;18.426;2023-04-24T11:50:12;100123.41;;;14.48;82.29
77106;BME280;66057;54.718;18.426;2023-04-24T11:52:40;100122.91;;;14.73;82.32
77106;BME280;66057;54.718;18.426;2023-04-24T11:55:27;100101.59;;;14.93;81.54
77106;BME280;66057;54.718;18.426;2023-04-24T11:57:58;100103.06;;;15.46;80.59
77106;BME280;66057;54.718;18.426;2023-04-24T12:00:33;100103.56;;;15.92;79.03
77106;BME280;66057;54.718;18.426;2023-04-24T12:03:08;100097.75;;;16.20;77.52
77106;BME280;66057;54.718;18.426;2023-04-24T12:05:34;100093.53;;;16.37;77.72
77106;BME280;66057;54.718;18.426;2023-04-24T12:08:00;100094.53;;;16.57;76.66
77106;BME280;66057;54.718;18.426;2023-04-24T12:10:28;100077.38;;;16.78;77.21
77106;BME280;66057;54.718;18.426;2023-04-24T12:12:56;100074.09;;;17.36;75.66
77106;BME280;66057;54.718;18.426;2023-04-24T12:15:22;100077.66;;;17.99;73.72
77106;BME280;66057;54.718;18.426;2023-04-24T12:17:49;100066.34;;;18.34;72.37
77106;BME280;66057;54.718;18.426;2023-04-24T12:20:16;100068.94;;;18.56;71.01
77106;BME280;66057;54.718;18.426;2023-04-24T12:22:59;100066.22;;;18.91;70.69
77106;BME280;66057;54.718;18.426;2023-04-24T12:25:27;100067.19;;;18.42;70.80
77106;BME280;66057;54.718;18.426;2023-04-24T12:30:20;100058.56;;;18.26;71.46
77106;BME280;66057;54.718;18.426;2023-04-24T12:32:48;100050.72;;;18.58;70.59
77106;BME280;66057;54.718;18.426;2023-04-24T12:35:19;100050.69;;;18.73;70.01
77106;BME280;66057;54.718;18.426;2023-04-24T12:37:46;100048.84;;;18.90;69.14
77106;BME280;66057;54.718;18.426;2023-04-24T12:40:12;100042.03;;;18.62;69.64
77106;BME280;66057;54.718;18.426;2023-04-24T12:42:49;100033.28;;;18.81;68.57
77106;BME280;66057;54.718;18.426;2023-04-24T12:45:16;100031.41;;;19.04;69.03
77106;BME280;66057;54.718;18.426;2023-04-24T12:47:44;100025.38;;;18.96;68.87
77106;BME280;66057;54.718;18.426;2023-04-24T12:50:12;100026.25;;;18.98;69.10